Time;durP1;ratioP1;P1;durP2;ratioP2;P2;SDS_P1;SDS_P2;PMS_P1;PMS_P2;Temp;Humidity;BMP_temperature;BMP_pressure;BME280_temperature;BME280_humidity;BME280_pressure;Samples;Min_cycle;Max_cycle;Signal;HPM_P1;HPM_P2
2022/04/28 00:00:43;;;;;;;;;;;11.80;73.40;;;;;;5075345;28;19917;-68
2022/04/28 00:03:10;;;;;;;;;;;11.70;73.60;;;;;;5078032;28;19912;-68
2022/04/28 00:05:35;;;;;;;;;;;11.70;73.60;;;;;;5080366;28;20379;-68
2022/04/28 00:08:01;;;;;;;;;;;11.70;73.50;;;;;;5072701;28;19947;-68
2022/04/28 00:10:27;;;;;;;;;;;11.60;73.60;;;;;;5073469;28;20467;-68
2022/04/28 00:12:52;;;;;;;;;;;11.60;73.70;;;;;;5071020;28;20011;-67
2022/04/28 00:15:18;;;;;;;;;;;11.60;73.70;;;;;;5069686;28;19912;-68
2022/04/28 00:17:43;;;;;;;;;;;11.60;73.90;;;;;;5075018;28;19908;-68
2022/04/28 00:20:09;;;;;;;;;;;11.50;73.80;;;;;;5074303;28;19912;-68
2022/04/28 00:22:35;;;;;;;;;;;11.50;73.80;;;;;;5077356;28;19998;-68
2022/04/28 00:25:00;;;;;;;;;;;11.50;73.80;;;;;;5071325;28;19940;-68
2022/04/28 00:27:26;;;;;;;;;;;11.50;74.00;;;;;;5081623;28;19944;-68
2022/04/28 00:29:51;;;;;;;;;;;11.40;73.90;;;;;;5069261;28;19965;-68
2022/04/28 00:32:17;;;;;;;;;;;11.40;74.00;;;;;;5083531;28;19921;-68
2022/04/28 00:34:43;;;;;;;;;;;11.40;74.10;;;;;;5082417;28;19912;-68
2022/04/28 00:37:09;;;;;;;;;;;11.30;74.00;;;;;;5075069;28;20226;-68
2022/04/28 00:39:38;;;;;;;;;;;11.30;74.00;;;;;;5077427;28;19918;-68
2022/04/28 00:42:11;;;;;;;;;;;11.30;74.10;;;;;;5078997;28;19911;-68
2022/04/28 00:44:36;;;;;;;;;;;11.30;74.20;;;;;;5074104;28;19919;-68
2022/04/28 00:47:02;;;;;;;;;;;11.20;74.20;;;;;;5084392;28;19916;-68
2022/04/28 00:52:11;;;;;;;;;;;11.20;74.30;;;;;;5077132;28;19962;-68
2022/04/28 00:54:37;;;;;;;;;;;11.20;74.30;;;;;;5073035;28;19935;-68
2022/04/28 00:57:03;;;;;;;;;;;11.20;74.30;;;;;;5071903;28;19920;-68
2022/04/28 00:59:29;;;;;;;;;;;11.10;74.30;;;;;;5075768;28;20257;-68
2022/04/28 01:01:54;;;;;;;;;;;11.10;74.40;;;;;;5073715;28;19927;-68
2022/04/28 01:04:20;;;;;;;;;;;11.10;74.50;;;;;;5070095;28;19913;-68
2022/04/28 01:06:45;;;;;;;;;;;11.10;74.50;;;;;;5064951;28;19934;-68
2022/04/28 01:09:11;;;;;;;;;;;11.00;74.40;;;;;;5076937;28;19912;-68
2022/04/28 01:11:38;;;;;;;;;;;11.00;74.40;;;;;;5072901;28;19920;-68
2022/04/28 01:14:03;;;;;;;;;;;11.00;74.50;;;;;;5074744;28;20365;-68
2022/04/28 01:16:29;;;;;;;;;;;11.00;74.40;;;;;;5080281;28;19962;-68
2022/04/28 01:18:54;;;;;;;;;;;11.00;74.50;;;;;;5079322;28;19912;-68
2022/04/28 01:21:20;;;;;;;;;;;10.90;74.40;;;;;;5075137;28;19908;-68
2022/04/28 01:23:45;;;;;;;;;;;10.90;74.50;;;;;;5085950;28;19923;-68
2022/04/28 01:26:12;;;;;;;;;;;10.90;74.50;;;;;;5077175;28;20360;-68
2022/04/28 01:28:38;;;;;;;;;;;10.90;74.40;;;;;;5070528;28;20374;-68
2022/04/28 01:31:06;;;;;;;;;;;10.90;74.50;;;;;;5080269;28;20015;-68
2022/04/28 01:33:32;;;;;;;;;;;10.80;74.60;;;;;;5075620;28;20348;-68
2022/04/28 01:35:58;;;;;;;;;;;10.80;74.60;;;;;;5073198;28;19943;-68
2022/04/28 01:38:24;;;;;;;;;;;10.80;74.70;;;;;;5075632;28;20003;-68
2022/04/28 01:40:49;;;;;;;;;;;10.80;74.70;;;;;;5085583;28;19916;-68
2022/04/28 01:43:15;;;;;;;;;;;10.70;74.70;;;;;;5075914;28;20011;-68
2022/04/28 01:45:40;;;;;;;;;;;10.80;74.70;;;;;;5082861;28;19999;-68
2022/04/28 01:48:06;;;;;;;;;;;10.70;74.70;;;;;;5079626;28;19912;-68
2022/04/28 01:50:31;;;;;;;;;;;10.70;74.80;;;;;;5080692;28;20299;-68
2022/04/28 01:55:41;;;;;;;;;;;10.70;74.90;;;;;;5084478;28;19930;-68
2022/04/28 01:58:06;;;;;;;;;;;10.60;74.70;;;;;;5083569;28;19916;-68
2022/04/28 02:00:32;;;;;;;;;;;10.70;74.90;;;;;;5084976;28;19992;-68
2022/04/28 02:02:57;;;;;;;;;;;10.60;74.80;;;;;;5077195;28;19918;-68
2022/04/28 02:05:23;;;;;;;;;;;10.60;74.90;;;;;;5079056;28;19955;-68
2022/04/28 02:07:48;;;;;;;;;;;10.60;74.90;;;;;;5078084;28;20002;-68
2022/04/28 02:10:14;;;;;;;;;;;10.50;74.90;;;;;;5073258;28;19920;-68
2022/04/28 02:12:39;;;;;;;;;;;10.50;75.00;;;;;;5078518;28;19919;-68
2022/04/28 02:15:05;;;;;;;;;;;10.50;75.00;;;;;;5074694;28;20613;-68
2022/04/28 02:17:33;;;;;;;;;;;10.50;75.00;;;;;;5074084;28;19936;-68
2022/04/28 02:20:02;;;;;;;;;;;10.50;75.00;;;;;;5079313;28;19920;-68
2022/04/28 02:22:28;;;;;;;;;;;10.50;75.20;;;;;;5081353;28;20357;-68
2022/04/28 02:24:53;;;;;;;;;;;10.40;75.00;;;;;;5073757;28;19920;-68
2022/04/28 02:27:19;;;;;;;;;;;10.40;75.10;;;;;;5092229;28;19912;-68
2022/04/28 02:29:44;;;;;;;;;;;10.40;75.00;;;;;;5076522;28;19917;-68
2022/04/28 02:32:10;;;;;;;;;;;10.40;75.10;;;;;;5072140;28;19913;-68
2022/04/28 02:34:35;;;;;;;;;;;10.40;75.20;;;;;;5077707;28;20362;-68
2022/04/28 02:37:01;;;;;;;;;;;10.30;75.10;;;;;;5074267;28;19920;-68
2022/04/28 02:39:26;;;;;;;;;;;10.30;75.10;;;;;;5072753;28;20089;-68
2022/04/28 02:41:53;;;;;;;;;;;10.30;75.10;;;;;;5081838;28;19915;-68
2022/04/28 02:44:18;;;;;;;;;;;10.30;75.10;;;;;;5077517;28;19966;-68
2022/04/28 02:46:45;;;;;;;;;;;10.30;75.10;;;;;;5072491;28;19924;-68
2022/04/28 02:49:11;;;;;;;;;;;10.30;75.20;;;;;;5088356;28;19924;-68
2022/04/28 02:51:37;;;;;;;;;;;10.30;75.10;;;;;;5081721;28;19968;-68
2022/04/28 02:54:03;;;;;;;;;;;10.20;75.10;;;;;;5080582;28;20465;-68
2022/04/28 02:56:28;;;;;;;;;;;10.30;75.20;;;;;;5080670;28;19919;-68
2022/04/28 02:58:54;;;;;;;;;;;10.20;75.10;;;;;;5079716;28;19912;-68
2022/04/28 03:01:20;;;;;;;;;;;10.20;75.20;;;;;;5073923;28;20269;-68
2022/04/28 03:03:45;;;;;;;;;;;10.20;75.20;;;;;;5077950;28;19996;-68
2022/04/28 03:11:41;;;;;;;;;;;10.10;75.20;;;;;;5077264;28;20025;-68
2022/04/28 03:14:07;;;;;;;;;;;10.10;75.30;;;;;;5084938;28;19913;-68
2022/04/28 03:16:32;;;;;;;;;;;10.10;75.30;;;;;;5078599;28;19912;-68
2022/04/28 03:18:58;;;;;;;;;;;10.10;75.30;;;;;;5087776;28;20348;-68
2022/04/28 03:21:23;;;;;;;;;;;10.10;75.20;;;;;;5075402;28;19991;-68
2022/04/28 03:23:49;;;;;;;;;;;10.00;75.30;;;;;;5082521;28;19919;-68
2022/04/28 03:26:14;;;;;;;;;;;10.00;75.20;;;;;;5078890;28;19908;-68
2022/04/28 03:28:40;;;;;;;;;;;10.00;75.30;;;;;;5081331;28;19964;-68
2022/04/28 03:31:06;;;;;;;;;;;10.00;75.30;;;;;;5076726;28;19920;-68
2022/04/28 03:33:32;;;;;;;;;;;10.00;75.40;;;;;;5071884;28;20322;-69
2022/04/28 03:35:58;;;;;;;;;;;9.90;75.30;;;;;;5073012;28;19924;-68
2022/04/28 03:38:23;;;;;;;;;;;9.90;75.40;;;;;;5079557;28;19916;-68
2022/04/28 03:40:49;;;;;;;;;;;9.90;75.40;;;;;;5066927;28;20556;-68
2022/04/28 03:43:14;;;;;;;;;;;9.90;75.40;;;;;;5075078;28;19918;-68
2022/04/28 03:45:41;;;;;;;;;;;9.90;75.40;;;;;;5082730;28;19912;-68
2022/04/28 03:48:10;;;;;;;;;;;9.90;75.50;;;;;;5073113;28;19913;-68
2022/04/28 03:50:38;;;;;;;;;;;9.90;75.40;;;;;;5079088;28;20534;-68
2022/04/28 03:53:04;;;;;;;;;;;9.80;75.40;;;;;;5076845;27;20668;-68
2022/04/28 03:55:30;;;;;;;;;;;9.80;75.50;;;;;;5087401;28;19917;-68
2022/04/28 03:57:55;;;;;;;;;;;9.80;75.50;;;;;;5078304;28;19912;-68
2022/04/28 04:00:21;;;;;;;;;;;9.80;75.50;;;;;;5076331;28;20054;-68
2022/04/28 04:02:47;;;;;;;;;;;9.80;75.50;;;;;;5075487;27;19916;-68
2022/04/28 04:05:13;;;;;;;;;;;9.80;75.60;;;;;;5079146;28;19959;-68
2022/04/28 04:07:38;;;;;;;;;;;9.80;75.50;;;;;;5076560;28;20527;-68
2022/04/28 04:10:04;;;;;;;;;;;9.70;75.50;;;;;;5074456;28;20432;-68
2022/04/28 04:12:30;;;;;;;;;;;9.70;75.50;;;;;;5073438;28;20288;-69
2022/04/28 04:14:56;;;;;;;;;;;9.70;75.50;;;;;;5075133;28;19913;-68
2022/04/28 04:17:21;;;;;;;;;;;9.70;75.60;;;;;;5079536;28;20510;-68
2022/04/28 04:19:47;;;;;;;;;;;9.70;75.60;;;;;;5069215;28;20334;-68
2022/04/28 04:22:12;;;;;;;;;;;9.70;75.60;;;;;;5085370;28;19915;-68
2022/04/28 04:24:40;;;;;;;;;;;9.70;75.60;;;;;;5070395;28;19916;-68
2022/04/28 04:27:06;;;;;;;;;;;9.60;75.60;;;;;;5084463;28;19958;-68
2022/04/28 04:29:31;;;;;;;;;;;9.60;75.60;;;;;;5077783;28;19955;-68
2022/04/28 04:34:40;;;;;;;;;;;9.60;75.60;;;;;;5076137;28;20029;-68
2022/04/28 04:37:06;;;;;;;;;;;9.60;75.60;;;;;;5088496;28;19961;-68
2022/04/28 04:39:32;;;;;;;;;;;9.60;75.70;;;;;;5076043;28;19912;-69
2022/04/28 04:41:57;;;;;;;;;;;9.60;75.60;;;;;;5073381;28;19920;-68
2022/04/28 04:44:23;;;;;;;;;;;9.60;75.70;;;;;;5073262;28;19923;-68
2022/04/28 04:46:48;;;;;;;;;;;9.60;75.80;;;;;;5076752;28;20322;-68
2022/04/28 04:49:14;;;;;;;;;;;9.50;75.70;;;;;;5080315;28;20447;-68
2022/04/28 04:51:39;;;;;;;;;;;9.50;75.70;;;;;;5071956;28;20014;-68
2022/04/28 04:54:05;;;;;;;;;;;9.50;75.70;;;;;;5081205;28;20244;-68
2022/04/28 04:56:30;;;;;;;;;;;9.60;75.70;;;;;;5072711;28;19994;-68
2022/04/28 04:58:56;;;;;;;;;;;9.50;76.40;;;;;;5078302;28;20527;-68
2022/04/28 05:01:21;;;;;;;;;;;9.50;75.70;;;;;;5070819;28;20366;-68
2022/04/28 05:03:46;;;;;;;;;;;9.50;75.80;;;;;;5076458;28;19916;-68
2022/04/28 05:06:12;;;;;;;;;;;9.50;75.70;;;;;;5068608;28;19919;-68
2022/04/28 05:08:37;;;;;;;;;;;9.50;75.70;;;;;;5082435;28;19916;-68
2022/04/28 05:11:03;;;;;;;;;;;9.50;75.80;;;;;;5076230;28;19998;-68
2022/04/28 05:13:28;;;;;;;;;;;9.50;75.80;;;;;;5071476;28;19916;-68
2022/04/28 05:15:54;;;;;;;;;;;9.50;76.40;;;;;;5077513;28;19924;-68
2022/04/28 05:18:19;;;;;;;;;;;9.40;75.80;;;;;;5085851;28;19916;-68
2022/04/28 05:20:45;;;;;;;;;;;9.40;75.80;;;;;;5077364;28;19978;-68
2022/04/28 05:23:10;;;;;;;;;;;9.50;75.90;;;;;;5077606;28;19924;-68
2022/04/28 05:25:36;;;;;;;;;;;9.40;75.80;;;;;;5077063;28;19922;-68
2022/04/28 05:28:02;;;;;;;;;;;9.40;75.80;;;;;;5069388;28;19924;-68
2022/04/28 05:30:27;;;;;;;;;;;9.40;75.80;;;;;;5081704;28;20019;-68
2022/04/28 05:32:53;;;;;;;;;;;9.40;75.80;;;;;;5081942;28;20006;-68
2022/04/28 05:35:18;;;;;;;;;;;9.40;75.90;;;;;;5072790;28;19908;-68
2022/04/28 05:37:44;;;;;;;;;;;9.40;75.90;;;;;;5069688;28;19951;-68
2022/04/28 05:40:11;;;;;;;;;;;9.40;75.80;;;;;;5075592;28;19965;-68
2022/04/28 05:48:05;;;;;;;;;;;9.40;76.00;;;;;;5070208;28;19923;-68
2022/04/28 05:50:31;;;;;;;;;;;9.40;76.00;;;;;;5084408;28;19929;-68
2022/04/28 05:52:57;;;;;;;;;;;9.40;76.00;;;;;;5074809;28;19967;-68
2022/04/28 05:55:22;;;;;;;;;;;9.40;76.00;;;;;;5080953;28;19943;-68
2022/04/28 05:57:48;;;;;;;;;;;9.40;76.00;;;;;;5076807;28;19999;-68
2022/04/28 06:00:13;;;;;;;;;;;9.50;76.00;;;;;;5072818;28;19916;-68
2022/04/28 06:02:39;;;;;;;;;;;9.50;76.00;;;;;;5071932;28;19995;-68
2022/04/28 06:05:05;;;;;;;;;;;9.50;76.00;;;;;;5078587;28;19913;-68
2022/04/28 06:07:30;;;;;;;;;;;9.50;76.00;;;;;;5081233;28;20591;-68
2022/04/28 06:09:56;;;;;;;;;;;9.50;76.00;;;;;;5078635;28;19913;-68
2022/04/28 06:12:24;;;;;;;;;;;9.50;76.00;;;;;;5078239;28;20532;-69
2022/04/28 06:14:49;;;;;;;;;;;9.40;76.00;;;;;;5080112;28;19939;-68
2022/04/28 06:17:15;;;;;;;;;;;9.40;76.10;;;;;;5081596;28;19978;-68
2022/04/28 06:19:40;;;;;;;;;;;9.40;76.10;;;;;;5082347;28;19920;-68
2022/04/28 06:22:06;;;;;;;;;;;9.40;76.10;;;;;;5082315;28;19912;-68
2022/04/28 06:24:31;;;;;;;;;;;9.40;76.10;;;;;;5076852;28;19928;-68
2022/04/28 06:26:57;;;;;;;;;;;9.50;76.20;;;;;;5078142;28;20303;-68
2022/04/28 06:29:22;;;;;;;;;;;9.50;76.10;;;;;;5072308;28;19924;-68
2022/04/28 06:31:48;;;;;;;;;;;9.50;76.10;;;;;;5075237;28;19917;-68
2022/04/28 06:34:13;;;;;;;;;;;9.50;76.00;;;;;;5074175;28;19919;-68
2022/04/28 06:36:39;;;;;;;;;;;9.50;76.10;;;;;;5084293;28;19989;-68
2022/04/28 06:39:04;;;;;;;;;;;9.50;76.00;;;;;;5075806;28;19919;-68
2022/04/28 06:41:30;;;;;;;;;;;9.60;76.10;;;;;;5078281;28;20294;-68
2022/04/28 06:43:56;;;;;;;;;;;9.60;76.10;;;;;;5079583;28;19944;-68
2022/04/28 06:46:22;;;;;;;;;;;9.60;76.00;;;;;;5076097;28;19943;-68
2022/04/28 06:48:47;;;;;;;;;;;9.60;75.90;;;;;;5083274;28;19971;-68
2022/04/28 06:51:13;;;;;;;;;;;9.60;76.00;;;;;;5075996;28;20549;-68
2022/04/28 06:53:39;;;;;;;;;;;9.60;75.90;;;;;;5079066;28;19915;-68
2022/04/28 06:56:07;;;;;;;;;;;9.70;75.80;;;;;;5072501;28;19943;-68
2022/04/28 06:58:33;;;;;;;;;;;9.70;75.80;;;;;;5072246;28;19966;-68
2022/04/28 07:00:59;;;;;;;;;;;9.70;75.80;;;;;;5077161;28;20395;-68
2022/04/28 07:03:25;;;;;;;;;;;9.70;75.70;;;;;;5078181;28;19912;-68
2022/04/28 07:05:52;;;;;;;;;;;9.80;75.80;;;;;;5075823;28;19919;-68
2022/04/28 07:08:17;;;;;;;;;;;9.80;75.80;;;;;;5076547;28;19943;-68
2022/04/28 07:10:43;;;;;;;;;;;9.80;75.70;;;;;;5082668;28;20472;-68
2022/04/28 07:13:08;;;;;;;;;;;9.80;75.70;;;;;;5078444;28;19987;-68
2022/04/28 07:15:35;;;;;;;;;;;9.80;75.70;;;;;;5071392;28;19912;-68
2022/04/28 07:18:03;;;;;;;;;;;9.80;75.60;;;;;;5080448;28;19923;-68
2022/04/28 07:20:32;;;;;;;;;;;9.80;75.50;;;;;;5081566;28;19916;-68
2022/04/28 07:22:59;;;;;;;;;;;9.90;75.50;;;;;;5076775;28;20324;-68
2022/04/28 07:25:28;;;;;;;;;;;9.90;75.60;;;;;;5082179;28;20407;-68
2022/04/28 07:27:54;;;;;;;;;;;9.90;75.40;;;;;;5075461;28;19916;-68
2022/04/28 07:30:20;;;;;;;;;;;9.90;75.40;;;;;;5077311;28;19985;-68
2022/04/28 07:32:50;;;;;;;;;;;9.90;75.40;;;;;;5075663;28;19921;-68
2022/04/28 07:35:16;;;;;;;;;;;10.00;75.40;;;;;;5069339;28;20295;-68
2022/04/28 07:37:41;;;;;;;;;;;10.00;75.30;;;;;;5073842;28;19927;-68
2022/04/28 07:40:07;;;;;;;;;;;10.00;75.70;;;;;;5078814;28;20329;-68
2022/04/28 07:42:33;;;;;;;;;;;10.00;75.30;;;;;;5071591;28;19912;-68
2022/04/28 07:44:59;;;;;;;;;;;10.10;75.30;;;;;;5079060;28;19915;-68
2022/04/28 07:47:26;;;;;;;;;;;10.00;75.20;;;;;;5071382;28;19912;-68
2022/04/28 07:49:55;;;;;;;;;;;10.10;75.30;;;;;;5070144;28;19924;-68
2022/04/28 07:52:21;;;;;;;;;;;10.10;75.20;;;;;;5094275;27;19911;-68
2022/04/28 07:54:46;;;;;;;;;;;10.20;75.20;;;;;;5088894;28;19926;-68
2022/04/28 07:57:12;;;;;;;;;;;10.20;75.20;;;;;;5074801;28;20010;-68
2022/04/28 07:59:37;;;;;;;;;;;10.20;75.10;;;;;;5072227;28;19920;-68
2022/04/28 08:02:03;;;;;;;;;;;10.20;75.00;;;;;;5072935;28;19919;-68
2022/04/28 08:04:29;;;;;;;;;;;10.30;75.00;;;;;;5075743;28;19916;-68
2022/04/28 08:06:55;;;;;;;;;;;10.20;74.90;;;;;;5076481;28;19919;-68
2022/04/28 08:09:20;;;;;;;;;;;10.30;74.90;;;;;;5078812;28;19916;-68
2022/04/28 08:11:46;;;;;;;;;;;10.30;74.80;;;;;;5076211;28;19995;-68
2022/04/28 08:14:11;;;;;;;;;;;10.30;74.80;;;;;;5072449;28;19916;-68
2022/04/28 08:16:37;;;;;;;;;;;10.30;74.70;;;;;;5080790;28;19920;-68
2022/04/28 08:19:03;;;;;;;;;;;10.40;74.80;;;;;;5078920;28;19916;-68
2022/04/28 08:21:29;;;;;;;;;;;10.40;74.70;;;;;;5079699;28;20661;-67
2022/04/28 08:23:55;;;;;;;;;;;10.40;74.60;;;;;;5072364;28;20686;-67
2022/04/28 08:26:20;;;;;;;;;;;10.50;74.60;;;;;;5074767;28;20003;-68
2022/04/28 08:28:46;;;;;;;;;;;10.50;74.60;;;;;;5078581;28;19998;-68
2022/04/28 08:31:11;;;;;;;;;;;10.50;74.50;;;;;;5072741;28;20011;-68
2022/04/28 08:33:37;;;;;;;;;;;10.50;74.60;;;;;;5078823;28;20529;-68
2022/04/28 08:36:03;;;;;;;;;;;10.50;74.50;;;;;;5079918;28;19912;-68
2022/04/28 08:38:28;;;;;;;;;;;10.60;74.40;;;;;;5076786;28;19912;-68
2022/04/28 08:40:58;;;;;;;;;;;10.60;74.40;;;;;;5072809;28;19909;-67
2022/04/28 08:43:23;;;;;;;;;;;10.60;74.50;;;;;;5073081;28;19917;-68
2022/04/28 08:48:38;;;;;;;;;;;10.70;74.20;;;;;;5082088;28;19958;-68
2022/04/28 08:51:03;;;;;;;;;;;10.80;74.20;;;;;;5075948;28;20454;-68
2022/04/28 08:53:29;;;;;;;;;;;10.80;74.10;;;;;;5077736;28;19919;-68
2022/04/28 08:55:57;;;;;;;;;;;10.80;74.00;;;;;;5076165;28;19973;-68
2022/04/28 08:58:23;;;;;;;;;;;10.80;73.90;;;;;;5072697;28;20388;-68
2022/04/28 09:00:48;;;;;;;;;;;10.90;74.00;;;;;;5073223;28;19915;-68
2022/04/28 09:03:14;;;;;;;;;;;10.90;73.90;;;;;;5085457;28;20273;-68
2022/04/28 09:05:40;;;;;;;;;;;11.00;73.90;;;;;;5071322;28;20501;-68
2022/04/28 09:08:06;;;;;;;;;;;11.00;73.70;;;;;;5070331;28;19918;-68
2022/04/28 09:10:32;;;;;;;;;;;11.10;73.60;;;;;;5076044;28;20619;-68
2022/04/28 09:15:48;;;;;;;;;;;11.20;73.30;;;;;;5071795;28;19990;-68
2022/04/28 09:18:14;;;;;;;;;;;11.20;73.30;;;;;;5074932;28;19920;-68
2022/04/28 09:20:41;;;;;;;;;;;11.30;73.30;;;;;;5077482;27;19912;-68
2022/04/28 09:23:07;;;;;;;;;;;11.30;73.30;;;;;;5079523;28;19923;-67
2022/04/28 09:25:33;;;;;;;;;;;11.30;73.20;;;;;;5076007;28;20554;-67
2022/04/28 09:28:05;;;;;;;;;;;11.40;73.10;;;;;;5078044;28;19912;-67
2022/04/28 09:30:50;;;;;;;;;;;11.40;73.00;;;;;;5072785;28;19916;-67
2022/04/28 09:33:18;;;;;;;;;;;11.40;73.00;;;;;;5074030;28;19920;-67
2022/04/28 09:35:48;;;;;;;;;;;11.40;72.90;;;;;;5073353;27;20503;-67
2022/04/28 09:38:13;;;;;;;;;;;11.50;72.90;;;;;;5074362;28;19927;-67
2022/04/28 09:43:24;;;;;;;;;;;11.60;72.70;;;;;;5079839;28;19962;-67
2022/04/28 09:45:50;;;;;;;;;;;11.60;72.60;;;;;;5080243;28;20425;-67
2022/04/28 09:48:17;;;;;;;;;;;11.70;72.60;;;;;;5076941;28;19923;-67
2022/04/28 09:50:43;;;;;;;;;;;11.80;72.40;;;;;;5079846;28;19920;-67
2022/04/28 09:53:09;;;;;;;;;;;11.80;72.10;;;;;;5071748;28;19926;-67
2022/04/28 09:55:35;;;;;;;;;;;11.80;72.00;;;;;;5081842;28;19964;-67
2022/04/28 09:58:08;;;;;;;;;;;11.90;71.90;;;;;;5075834;28;19916;-67
2022/04/28 10:00:34;;;;;;;;;;;11.90;71.90;;;;;;5082395;28;19991;-67
2022/04/28 10:03:02;;;;;;;;;;;12.00;71.80;;;;;;5076098;28;20007;-67
2022/04/28 10:05:28;;;;;;;;;;;12.00;71.70;;;;;;5082431;28;20349;-67
2022/04/28 10:07:54;;;;;;;;;;;12.10;71.40;;;;;;5075669;28;19973;-68
2022/04/28 10:10:19;;;;;;;;;;;12.10;71.50;;;;;;5089316;28;19989;-67
2022/04/28 10:12:47;;;;;;;;;;;12.20;71.40;;;;;;5069325;28;20544;-67
2022/04/28 10:15:13;;;;;;;;;;;12.30;71.30;;;;;;5080349;28;20562;-67
2022/04/28 10:17:42;;;;;;;;;;;12.30;71.20;;;;;;5076610;28;19920;-67
2022/04/28 10:20:10;;;;;;;;;;;12.40;71.20;;;;;;5082239;28;19920;-67
2022/04/28 10:22:36;;;;;;;;;;;12.40;71.30;;;;;;5080691;28;19916;-67
2022/04/28 10:33:25;;;;;;;;;;;12.70;71.10;;;;;;5077325;28;19965;-67
2022/04/28 10:35:52;;;;;;;;;;;12.80;71.10;;;;;;5079494;28;19920;-67
2022/04/28 10:38:25;;;;;;;;;;;12.90;71.30;;;;;;5080658;28;19921;-67
2022/04/28 10:40:53;;;;;;;;;;;13.00;71.30;;;;;;5087556;28;19922;-67
2022/04/28 10:43:19;;;;;;;;;;;13.10;71.30;;;;;;5075785;28;19920;-67
2022/04/28 10:45:45;;;;;;;;;;;13.20;71.20;;;;;;5074704;28;19919;-67
2022/04/28 10:48:24;;;;;;;;;;;13.30;71.30;;;;;;5075675;28;20727;-67
2022/04/28 10:51:02;;;;;;;;;;;13.40;71.50;;;;;;5076331;28;20288;-67
2022/04/28 10:53:27;;;;;;;;;;;13.50;71.20;;;;;;5079945;28;20535;-67
2022/04/28 10:55:53;;;;;;;;;;;13.70;71.40;;;;;;5077764;28;19924;-67
2022/04/28 10:58:18;;;;;;;;;;;13.80;71.30;;;;;;5073539;28;19921;-67
2022/04/28 11:00:53;;;;;;;;;;;13.90;71.10;;;;;;5077728;28;20030;-67
2022/04/28 11:03:37;;;;;;;;;;;14.00;70.90;;;;;;5073245;28;20291;-67
2022/04/28 11:06:13;;;;;;;;;;;14.10;70.90;;;;;;5085964;28;19957;-67
2022/04/28 11:08:43;;;;;;;;;;;14.20;70.70;;;;;;5078531;28;20046;-67
2022/04/28 11:11:12;;;;;;;;;;;14.40;70.80;;;;;;5070370;28;19938;-67
2022/04/28 11:13:40;;;;;;;;;;;14.50;70.60;;;;;;5079092;28;20006;-67
2022/04/28 11:16:07;;;;;;;;;;;14.60;70.20;;;;;;5075799;28;19916;-67
2022/04/28 11:18:33;;;;;;;;;;;14.70;70.30;;;;;;5084723;28;19958;-67
2022/04/28 11:21:00;;;;;;;;;;;14.80;70.20;;;;;;5075372;28;19927;-67
2022/04/28 11:23:31;;;;;;;;;;;14.90;70.10;;;;;;5092887;28;20373;-67
2022/04/28 11:25:56;;;;;;;;;;;15.00;70.00;;;;;;5075749;28;19920;-67
2022/04/28 11:28:22;;;;;;;;;;;15.10;70.00;;;;;;5078962;28;19973;-67
2022/04/28 11:30:48;;;;;;;;;;;15.20;70.00;;;;;;5074608;28;19914;-67
2022/04/28 11:33:14;;;;;;;;;;;15.30;69.90;;;;;;5081023;28;19912;-67
2022/04/28 11:35:40;;;;;;;;;;;15.40;69.80;;;;;;5081715;28;19939;-67
2022/04/28 11:38:05;;;;;;;;;;;15.50;69.70;;;;;;5078503;28;19916;-67
2022/04/28 11:40:34;;;;;;;;;;;15.60;69.70;;;;;;5074088;28;20273;-67
2022/04/28 11:43:01;;;;;;;;;;;15.70;69.80;;;;;;5073859;28;19918;-67
2022/04/28 11:45:29;;;;;;;;;;;15.70;69.90;;;;;;5081038;28;19974;-67
2022/04/28 11:47:56;;;;;;;;;;;15.80;70.00;;;;;;5078463;28;20288;-67
2022/04/28 11:50:26;;;;;;;;;;;15.80;69.70;;;;;;5087670;28;19920;-67
2022/04/28 11:53:12;;;;;;;;;;;15.90;69.50;;;;;;5074575;28;19927;-67
2022/04/28 11:55:40;;;;;;;;;;;16.00;69.60;;;;;;5076498;28;19924;-67
2022/04/28 11:58:07;;;;;;;;;;;16.10;69.40;;;;;;5076316;28;20016;-67
2022/04/28 12:00:40;;;;;;;;;;;16.10;69.20;;;;;;5078887;28;19908;-67
2022/04/28 12:03:08;;;;;;;;;;;16.20;69.00;;;;;;5073670;28;21867;-67
2022/04/28 12:05:34;;;;;;;;;;;16.30;69.00;;;;;;5081172;28;19999;-67
2022/04/28 12:08:00;;;;;;;;;;;16.40;69.20;;;;;;5069959;28;20369;-67
2022/04/28 12:15:54;;;;;;;;;;;16.60;69.20;;;;;;5075351;28;19950;-67
2022/04/28 12:21:34;;;;;;;;;;;16.70;69.10;;;;;;5074675;28;19990;-67
2022/04/28 12:24:00;;;;;;;;;;;16.70;69.20;;;;;;5066947;28;20480;-67
2022/04/28 12:26:26;;;;;;;;;;;16.80;69.50;;;;;;5072338;28;19999;-67
2022/04/28 12:28:52;;;;;;;;;;;16.90;69.30;;;;;;5076298;28;19916;-67
2022/04/28 12:31:30;;;;;;;;;;;16.90;69.90;;;;;;5083482;28;19962;-67
2022/04/28 12:33:57;;;;;;;;;;;17.00;69.30;;;;;;5067057;28;19917;-67
2022/04/28 12:36:22;;;;;;;;;;;17.00;69.50;;;;;;5083024;28;20338;-67
2022/04/28 12:38:56;;;;;;;;;;;17.10;69.60;;;;;;5077836;28;19913;-67
2022/04/28 12:41:23;;;;;;;;;;;17.10;69.40;;;;;;5081408;28;19920;-67
2022/04/28 12:43:49;;;;;;;;;;;17.20;69.50;;;;;;5068459;28;20519;-67
2022/04/28 12:46:20;;;;;;;;;;;17.30;69.40;;;;;;5078369;28;19916;-67
2022/04/28 12:48:52;;;;;;;;;;;17.30;69.10;;;;;;5074886;28;20292;-67
2022/04/28 12:51:19;;;;;;;;;;;17.40;69.10;;;;;;5075549;28;20285;-67
2022/04/28 12:53:48;;;;;;;;;;;17.50;69.40;;;;;;5076224;28;19912;-67
2022/04/28 12:56:15;;;;;;;;;;;17.50;69.30;;;;;;5078757;28;19947;-67
2022/04/28 12:58:42;;;;;;;;;;;17.60;69.40;;;;;;5073354;28;19931;-67
2022/04/28 13:01:09;;;;;;;;;;;17.60;68.90;;;;;;5072469;28;20344;-67
2022/04/28 13:03:34;;;;;;;;;;;17.60;68.50;;;;;;5074009;28;20011;-67
2022/04/28 13:06:00;;;;;;;;;;;17.70;68.70;;;;;;5065932;28;20351;-67
2022/04/28 13:08:25;;;;;;;;;;;17.70;68.70;;;;;;5086001;28;19912;-67
2022/04/28 13:10:51;;;;;;;;;;;17.80;68.30;;;;;;5074027;28;20016;-67
2022/04/28 13:13:17;;;;;;;;;;;17.90;69.00;;;;;;5080003;28;19921;-67
2022/04/28 13:15:42;;;;;;;;;;;17.90;69.00;;;;;;5076694;28;20467;-67
2022/04/28 13:18:08;;;;;;;;;;;18.00;69.10;;;;;;5089671;28;19913;-67
2022/04/28 13:20:33;;;;;;;;;;;18.10;69.00;;;;;;5076573;28;19915;-67
2022/04/28 13:22:59;;;;;;;;;;;18.10;67.50;;;;;;5082935;28;19922;-67
2022/04/28 13:25:24;;;;;;;;;;;18.20;68.50;;;;;;5076791;28;19981;-67
2022/04/28 13:27:50;;;;;;;;;;;18.20;68.80;;;;;;5082793;28;20728;-67
2022/04/28 13:30:15;;;;;;;;;;;18.30;68.90;;;;;;5079430;28;19916;-67
2022/04/28 13:32:41;;;;;;;;;;;18.30;68.70;;;;;;5082144;28;19923;-67
2022/04/28 13:35:06;;;;;;;;;;;18.40;68.30;;;;;;5080074;28;19931;-67
2022/04/28 13:37:32;;;;;;;;;;;18.40;68.30;;;;;;5076731;28;19920;-67
2022/04/28 13:39:57;;;;;;;;;;;18.50;68.60;;;;;;5073294;28;20489;-67
2022/04/28 13:42:23;;;;;;;;;;;18.50;68.40;;;;;;5079639;28;19916;-67
2022/04/28 13:44:48;;;;;;;;;;;18.60;68.50;;;;;;5080608;28;19951;-67
2022/04/28 13:47:14;;;;;;;;;;;18.60;68.30;;;;;;5074256;28;19913;-67
2022/04/28 13:49:39;;;;;;;;;;;18.70;68.30;;;;;;5075950;28;20007;-67
2022/04/28 13:52:05;;;;;;;;;;;18.70;68.20;;;;;;5070440;28;20377;-67
2022/04/28 13:54:30;;;;;;;;;;;18.80;67.60;;;;;;5082339;28;19962;-67
2022/04/28 13:56:56;;;;;;;;;;;18.80;68.10;;;;;;5077795;28;20368;-67
2022/04/28 13:59:21;;;;;;;;;;;18.90;68.00;;;;;;5091971;28;19999;-67
2022/04/28 14:01:47;;;;;;;;;;;18.90;67.70;;;;;;5072404;28;19917;-67
2022/04/28 14:04:14;;;;;;;;;;;18.90;67.30;;;;;;5081380;28;19966;-67
2022/04/28 14:06:40;;;;;;;;;;;19.00;67.60;;;;;;5076322;28;19919;-67
2022/04/28 14:09:05;;;;;;;;;;;19.10;67.60;;;;;;5080611;28;20013;-68
2022/04/28 14:11:32;;;;;;;;;;;19.10;67.40;;;;;;5076537;28;20347;-67
2022/04/28 14:13:58;;;;;;;;;;;19.10;67.30;;;;;;5073018;28;19918;-67
2022/04/28 14:16:24;;;;;;;;;;;19.20;67.10;;;;;;5071837;28;19936;-67
2022/04/28 14:18:49;;;;;;;;;;;19.20;66.70;;;;;;5076118;28;20418;-67
2022/04/28 14:21:15;;;;;;;;;;;19.30;66.40;;;;;;5078654;28;19920;-67
2022/04/28 14:23:41;;;;;;;;;;;19.30;66.40;;;;;;5071292;28;20019;-67
2022/04/28 14:26:07;;;;;;;;;;;19.40;66.90;;;;;;5083594;28;20019;-68
2022/04/28 14:28:33;;;;;;;;;;;19.50;66.20;;;;;;5077246;28;20346;-67
2022/04/28 14:30:58;;;;;;;;;;;19.50;62.80;;;;;;5076201;28;19916;-67
2022/04/28 14:33:24;;;;;;;;;;;19.60;62.50;;;;;;5073989;28;20547;-67
2022/04/28 14:35:50;;;;;;;;;;;19.80;61.30;;;;;;5087442;28;19913;-67
2022/04/28 14:38:18;;;;;;;;;;;19.80;61.10;;;;;;5076519;28;19916;-68
2022/04/28 14:40:44;;;;;;;;;;;20.00;60.80;;;;;;5078938;28;19912;-68
2022/04/28 14:43:09;;;;;;;;;;;20.10;60.50;;;;;;5069598;28;19912;-67
2022/04/28 14:45:35;;;;;;;;;;;20.10;60.10;;;;;;5081204;28;19927;-67
2022/04/28 14:48:01;;;;;;;;;;;20.20;60.30;;;;;;5075913;28;19919;-68
2022/04/28 14:53:12;;;;;;;;;;;20.60;60.00;;;;;;5072610;28;20698;-67
2022/04/28 14:55:38;;;;;;;;;;;20.70;59.40;;;;;;5076792;28;20006;-67
2022/04/28 14:58:06;;;;;;;;;;;20.90;59.20;;;;;;5075798;28;19951;-68
2022/04/28 15:00:33;;;;;;;;;;;21.00;59.40;;;;;;5078484;28;19927;-67
2022/04/28 15:02:58;;;;;;;;;;;21.20;58.60;;;;;;5081730;28;20539;-67